sensor_id;sensor_type;location;lat;lon;timestamp;P1;durP1;ratioP1;P2;durP2;ratioP2
52858;SDS011;38721;53.098;6.596;2022-12-18T00:01:56;98.90;;;33.45;;
52858;SDS011;38721;53.098;6.596;2022-12-18T00:04:24;96.82;;;32.17;;
52858;SDS011;38721;53.098;6.596;2022-12-18T00:06:51;110.78;;;34.65;;
52858;SDS011;38721;53.098;6.596;2022-12-18T00:09:17;106.47;;;33.75;;
52858;SDS011;38721;53.098;6.596;2022-12-18T00:11:43;112.45;;;34.33;;
52858;SDS011;38721;53.098;6.596;2022-12-18T00:14:10;108.18;;;34.63;;
52858;SDS011;38721;53.098;6.596;2022-12-18T00:16:37;104.10;;;33.33;;
52858;SDS011;38721;53.098;6.596;2022-12-18T00:19:03;99.47;;;33.83;;
52858;SDS011;38721;53.098;6.596;2022-12-18T00:21:30;113.55;;;36.50;;
52858;SDS011;38721;53.098;6.596;2022-12-18T00:23:57;115.22;;;34.35;;
52858;SDS011;38721;53.098;6.596;2022-12-18T00:26:24;114.35;;;35.00;;
52858;SDS011;38721;53.098;6.596;2022-12-18T00:28:55;109.68;;;35.45;;
52858;SDS011;38721;53.098;6.596;2022-12-18T00:31:23;115.93;;;36.20;;
52858;SDS011;38721;53.098;6.596;2022-12-18T00:33:49;113.90;;;36.65;;
52858;SDS011;38721;53.098;6.596;2022-12-18T00:36:21;113.15;;;35.10;;
52858;SDS011;38721;53.098;6.596;2022-12-18T00:38:49;95.38;;;33.13;;
52858;SDS011;38721;53.098;6.596;2022-12-18T00:41:15;100.65;;;33.33;;
52858;SDS011;38721;53.098;6.596;2022-12-18T00:44:04;98.82;;;33.45;;
52858;SDS011;38721;53.098;6.596;2022-12-18T00:46:32;101.15;;;35.00;;
52858;SDS011;38721;53.098;6.596;2022-12-18T00:48:58;94.13;;;33.72;;
52858;SDS011;38721;53.098;6.596;2022-12-18T00:51:25;93.88;;;31.70;;
52858;SDS011;38721;53.098;6.596;2022-12-18T00:53:51;94.20;;;32.70;;
52858;SDS011;38721;53.098;6.596;2022-12-18T00:56:17;94.28;;;32.10;;
52858;SDS011;38721;53.098;6.596;2022-12-18T00:58:46;94.75;;;33.45;;
52858;SDS011;38721;53.098;6.596;2022-12-18T01:01:11;101.15;;;35.17;;
52858;SDS011;38721;53.098;6.596;2022-12-18T01:03:37;92.07;;;33.22;;
52858;SDS011;38721;53.098;6.596;2022-12-18T01:06:07;99.07;;;34.80;;
52858;SDS011;38721;53.098;6.596;2022-12-18T01:08:36;110.55;;;37.13;;
52858;SDS011;38721;53.098;6.596;2022-12-18T01:11:14;105.60;;;34.15;;
52858;SDS011;38721;53.098;6.596;2022-12-18T01:13:41;104.13;;;35.08;;
52858;SDS011;38721;53.098;6.596;2022-12-18T01:16:07;113.18;;;34.38;;
52858;SDS011;38721;53.098;6.596;2022-12-18T01:18:34;103.55;;;35.33;;
52858;SDS011;38721;53.098;6.596;2022-12-18T01:21:00;102.53;;;34.80;;
52858;SDS011;38721;53.098;6.596;2022-12-18T01:23:26;108.82;;;36.00;;
52858;SDS011;38721;53.098;6.596;2022-12-18T01:25:51;105.95;;;35.17;;
52858;SDS011;38721;53.098;6.596;2022-12-18T01:28:20;99.82;;;32.85;;
52858;SDS011;38721;53.098;6.596;2022-12-18T01:30:46;121.28;;;36.92;;
52858;SDS011;38721;53.098;6.596;2022-12-18T01:33:11;104.53;;;35.25;;
52858;SDS011;38721;53.098;6.596;2022-12-18T01:35:41;111.55;;;36.75;;
52858;SDS011;38721;53.098;6.596;2022-12-18T01:38:07;100.57;;;33.60;;
52858;SDS011;38721;53.098;6.596;2022-12-18T01:40:36;96.15;;;34.33;;
52858;SDS011;38721;53.098;6.596;2022-12-18T01:43:02;107.13;;;33.45;;
52858;SDS011;38721;53.098;6.596;2022-12-18T01:45:28;94.20;;;32.38;;
52858;SDS011;38721;53.098;6.596;2022-12-18T01:47:57;97.88;;;33.72;;
52858;SDS011;38721;53.098;6.596;2022-12-18T01:50:35;85.72;;;30.85;;
52858;SDS011;38721;53.098;6.596;2022-12-18T01:53:05;96.13;;;31.45;;
52858;SDS011;38721;53.098;6.596;2022-12-18T01:55:43;88.30;;;31.55;;
52858;SDS011;38721;53.098;6.596;2022-12-18T01:58:15;96.43;;;33.58;;
52858;SDS011;38721;53.098;6.596;2022-12-18T02:00:43;112.55;;;33.97;;
52858;SDS011;38721;53.098;6.596;2022-12-18T02:03:09;97.50;;;33.70;;
52858;SDS011;38721;53.098;6.596;2022-12-18T02:08:20;98.60;;;32.58;;
52858;SDS011;38721;53.098;6.596;2022-12-18T02:11:08;111.28;;;34.97;;
52858;SDS011;38721;53.098;6.596;2022-12-18T02:19:19;111.60;;;34.83;;
52858;SDS011;38721;53.098;6.596;2022-12-18T02:21:52;103.78;;;35.47;;
52858;SDS011;38721;53.098;6.596;2022-12-18T02:24:45;106.75;;;34.60;;
52858;SDS011;38721;53.098;6.596;2022-12-18T02:27:18;114.15;;;37.03;;
52858;SDS011;38721;53.098;6.596;2022-12-18T02:29:46;128.45;;;38.80;;
52858;SDS011;38721;53.098;6.596;2022-12-18T02:32:27;118.90;;;37.83;;
52858;SDS011;38721;53.098;6.596;2022-12-18T02:34:58;112.43;;;36.15;;
52858;SDS011;38721;53.098;6.596;2022-12-18T02:37:27;113.60;;;38.60;;
52858;SDS011;38721;53.098;6.596;2022-12-18T02:39:54;113.05;;;36.13;;
52858;SDS011;38721;53.098;6.596;2022-12-18T02:42:22;111.93;;;37.55;;
52858;SDS011;38721;53.098;6.596;2022-12-18T02:44:48;116.05;;;40.13;;
52858;SDS011;38721;53.098;6.596;2022-12-18T02:47:22;114.15;;;38.30;;
52858;SDS011;38721;53.098;6.596;2022-12-18T02:55:28;111.75;;;37.03;;
52858;SDS011;38721;53.098;6.596;2022-12-18T03:03:32;102.28;;;34.45;;
52858;SDS011;38721;53.098;6.596;2022-12-18T03:06:12;100.47;;;37.25;;
52858;SDS011;38721;53.098;6.596;2022-12-18T03:08:44;108.60;;;39.53;;
52858;SDS011;38721;53.098;6.596;2022-12-18T03:11:16;106.40;;;38.90;;
52858;SDS011;38721;53.098;6.596;2022-12-18T03:14:02;103.18;;;38.22;;
52858;SDS011;38721;53.098;6.596;2022-12-18T03:16:31;101.13;;;37.13;;
52858;SDS011;38721;53.098;6.596;2022-12-18T03:19:01;108.22;;;38.83;;
52858;SDS011;38721;53.098;6.596;2022-12-18T03:21:33;109.07;;;38.33;;
52858;SDS011;38721;53.098;6.596;2022-12-18T03:24:14;104.90;;;37.17;;
52858;SDS011;38721;53.098;6.596;2022-12-18T03:26:43;115.60;;;40.33;;
52858;SDS011;38721;53.098;6.596;2022-12-18T03:29:19;116.82;;;45.75;;
52858;SDS011;38721;53.098;6.596;2022-12-18T03:32:00;119.22;;;45.75;;
52858;SDS011;38721;53.098;6.596;2022-12-18T03:34:31;124.32;;;48.22;;
52858;SDS011;38721;53.098;6.596;2022-12-18T03:37:04;118.07;;;46.67;;
52858;SDS011;38721;53.098;6.596;2022-12-18T03:39:30;129.68;;;49.72;;
52858;SDS011;38721;53.098;6.596;2022-12-18T03:44:53;125.80;;;48.13;;
52858;SDS011;38721;53.098;6.596;2022-12-18T03:47:51;122.22;;;50.00;;
52858;SDS011;38721;53.098;6.596;2022-12-18T03:55:37;122.97;;;47.13;;
52858;SDS011;38721;53.098;6.596;2022-12-18T03:58:04;125.28;;;49.15;;
52858;SDS011;38721;53.098;6.596;2022-12-18T04:00:32;121.72;;;47.08;;
52858;SDS011;38721;53.098;6.596;2022-12-18T04:02:59;120.15;;;48.83;;
52858;SDS011;38721;53.098;6.596;2022-12-18T04:05:26;127.68;;;49.13;;
52858;SDS011;38721;53.098;6.596;2022-12-18T04:07:54;128.52;;;49.35;;
52858;SDS011;38721;53.098;6.596;2022-12-18T04:10:21;121.85;;;48.92;;
52858;SDS011;38721;53.098;6.596;2022-12-18T04:12:47;128.35;;;49.38;;
52858;SDS011;38721;53.098;6.596;2022-12-18T04:15:13;123.30;;;49.95;;
52858;SDS011;38721;53.098;6.596;2022-12-18T04:17:42;114.57;;;46.03;;
52858;SDS011;38721;53.098;6.596;2022-12-18T04:20:13;118.80;;;47.57;;
52858;SDS011;38721;53.098;6.596;2022-12-18T04:22:38;115.07;;;45.85;;
52858;SDS011;38721;53.098;6.596;2022-12-18T04:25:04;118.80;;;47.35;;
52858;SDS011;38721;53.098;6.596;2022-12-18T04:27:30;114.75;;;46.95;;
52858;SDS011;38721;53.098;6.596;2022-12-18T04:29:55;110.35;;;45.45;;
52858;SDS011;38721;53.098;6.596;2022-12-18T04:32:21;118.00;;;44.47;;
52858;SDS011;38721;53.098;6.596;2022-12-18T04:34:47;121.20;;;47.50;;
52858;SDS011;38721;53.098;6.596;2022-12-18T04:37:12;108.40;;;43.58;;
52858;SDS011;38721;53.098;6.596;2022-12-18T04:39:41;119.10;;;44.72;;
52858;SDS011;38721;53.098;6.596;2022-12-18T04:42:07;115.07;;;44.20;;
52858;SDS011;38721;53.098;6.596;2022-12-18T04:44:33;105.32;;;43.60;;
52858;SDS011;38721;53.098;6.596;2022-12-18T04:46:58;113.80;;;42.95;;
52858;SDS011;38721;53.098;6.596;2022-12-18T04:49:24;107.22;;;38.85;;
52858;SDS011;38721;53.098;6.596;2022-12-18T04:51:49;103.60;;;41.67;;
52858;SDS011;38721;53.098;6.596;2022-12-18T04:54:16;113.00;;;41.28;;
52858;SDS011;38721;53.098;6.596;2022-12-18T04:56:45;107.97;;;39.65;;
52858;SDS011;38721;53.098;6.596;2022-12-18T04:59:11;89.43;;;34.88;;
52858;SDS011;38721;53.098;6.596;2022-12-18T05:01:39;95.75;;;34.17;;
52858;SDS011;38721;53.098;6.596;2022-12-18T05:04:05;87.97;;;33.25;;
52858;SDS011;38721;53.098;6.596;2022-12-18T05:06:31;98.07;;;33.67;;
52858;SDS011;38721;53.098;6.596;2022-12-18T05:08:56;83.45;;;31.30;;
52858;SDS011;38721;53.098;6.596;2022-12-18T05:11:22;94.80;;;34.70;;
52858;SDS011;38721;53.098;6.596;2022-12-18T05:13:48;83.90;;;33.00;;
52858;SDS011;38721;53.098;6.596;2022-12-18T05:16:14;79.78;;;31.15;;
52858;SDS011;38721;53.098;6.596;2022-12-18T05:18:39;87.72;;;31.48;;
52858;SDS011;38721;53.098;6.596;2022-12-18T05:21:08;80.43;;;32.15;;
52858;SDS011;38721;53.098;6.596;2022-12-18T05:23:34;75.50;;;32.05;;
52858;SDS011;38721;53.098;6.596;2022-12-18T05:26:00;81.65;;;31.75;;
52858;SDS011;38721;53.098;6.596;2022-12-18T05:28:28;83.00;;;31.65;;
52858;SDS011;38721;53.098;6.596;2022-12-18T05:30:57;78.50;;;31.42;;
52858;SDS011;38721;53.098;6.596;2022-12-18T05:33:25;81.63;;;31.50;;
52858;SDS011;38721;53.098;6.596;2022-12-18T05:35:59;68.53;;;32.08;;
52858;SDS011;38721;53.098;6.596;2022-12-18T05:38:30;70.13;;;30.75;;
52858;SDS011;38721;53.098;6.596;2022-12-18T05:40:57;67.53;;;29.10;;
52858;SDS011;38721;53.098;6.596;2022-12-18T05:43:23;76.97;;;30.73;;
52858;SDS011;38721;53.098;6.596;2022-12-18T05:45:50;67.95;;;29.88;;
52858;SDS011;38721;53.098;6.596;2022-12-18T05:48:20;78.18;;;29.35;;
52858;SDS011;38721;53.098;6.596;2022-12-18T05:50:47;69.43;;;29.75;;
52858;SDS011;38721;53.098;6.596;2022-12-18T05:53:14;62.83;;;27.42;;
52858;SDS011;38721;53.098;6.596;2022-12-18T05:55:44;67.72;;;29.77;;
52858;SDS011;38721;53.098;6.596;2022-12-18T05:58:14;67.88;;;28.15;;
52858;SDS011;38721;53.098;6.596;2022-12-18T06:00:41;60.55;;;29.08;;
52858;SDS011;38721;53.098;6.596;2022-12-18T06:03:09;66.03;;;27.30;;
52858;SDS011;38721;53.098;6.596;2022-12-18T06:05:36;59.80;;;27.27;;
52858;SDS011;38721;53.098;6.596;2022-12-18T06:08:02;65.63;;;27.92;;
52858;SDS011;38721;53.098;6.596;2022-12-18T06:10:28;68.22;;;26.25;;
52858;SDS011;38721;53.098;6.596;2022-12-18T06:12:54;64.40;;;27.52;;
52858;SDS011;38721;53.098;6.596;2022-12-18T06:15:23;60.75;;;26.65;;
52858;SDS011;38721;53.098;6.596;2022-12-18T06:17:49;62.03;;;27.13;;
52858;SDS011;38721;53.098;6.596;2022-12-18T06:20:19;68.63;;;26.77;;
52858;SDS011;38721;53.098;6.596;2022-12-18T06:22:45;65.32;;;27.30;;
52858;SDS011;38721;53.098;6.596;2022-12-18T06:25:11;60.83;;;26.90;;
52858;SDS011;38721;53.098;6.596;2022-12-18T06:27:40;61.67;;;27.23;;
52858;SDS011;38721;53.098;6.596;2022-12-18T06:30:18;58.05;;;26.67;;
52858;SDS011;38721;53.098;6.596;2022-12-18T06:32:53;53.88;;;25.73;;
52858;SDS011;38721;53.098;6.596;2022-12-18T06:35:18;59.78;;;26.52;;
52858;SDS011;38721;53.098;6.596;2022-12-18T06:37:47;57.78;;;24.65;;
52858;SDS011;38721;53.098;6.596;2022-12-18T06:40:13;56.67;;;25.90;;
52858;SDS011;38721;53.098;6.596;2022-12-18T06:42:59;63.70;;;26.20;;
52858;SDS011;38721;53.098;6.596;2022-12-18T06:45:33;54.47;;;24.38;;
52858;SDS011;38721;53.098;6.596;2022-12-18T06:47:59;56.25;;;24.58;;
52858;SDS011;38721;53.098;6.596;2022-12-18T06:50:24;54.22;;;24.83;;
52858;SDS011;38721;53.098;6.596;2022-12-18T06:52:50;53.88;;;26.23;;
52858;SDS011;38721;53.098;6.596;2022-12-18T06:55:16;57.80;;;25.40;;
52858;SDS011;38721;53.098;6.596;2022-12-18T06:57:41;58.92;;;24.48;;
52858;SDS011;38721;53.098;6.596;2022-12-18T07:00:07;57.03;;;26.55;;
52858;SDS011;38721;53.098;6.596;2022-12-18T07:02:33;55.22;;;24.77;;
52858;SDS011;38721;53.098;6.596;2022-12-18T07:05:02;51.70;;;25.38;;
52858;SDS011;38721;53.098;6.596;2022-12-18T07:07:28;54.95;;;26.35;;
52858;SDS011;38721;53.098;6.596;2022-12-18T07:09:53;54.05;;;25.27;;
52858;SDS011;38721;53.098;6.596;2022-12-18T07:12:19;55.05;;;23.90;;
52858;SDS011;38721;53.098;6.596;2022-12-18T07:14:45;48.78;;;24.05;;
52858;SDS011;38721;53.098;6.596;2022-12-18T07:17:10;54.65;;;24.17;;
52858;SDS011;38721;53.098;6.596;2022-12-18T07:19:36;52.90;;;25.08;;
52858;SDS011;38721;53.098;6.596;2022-12-18T07:22:01;52.45;;;25.13;;
52858;SDS011;38721;53.098;6.596;2022-12-18T07:24:27;52.55;;;24.65;;
52858;SDS011;38721;53.098;6.596;2022-12-18T07:26:53;55.42;;;24.15;;
52858;SDS011;38721;53.098;6.596;2022-12-18T07:29:19;46.25;;;22.75;;
52858;SDS011;38721;53.098;6.596;2022-12-18T07:31:44;51.15;;;24.25;;
52858;SDS011;38721;53.098;6.596;2022-12-18T07:34:12;50.17;;;23.55;;
52858;SDS011;38721;53.098;6.596;2022-12-18T07:36:40;54.35;;;24.83;;
52858;SDS011;38721;53.098;6.596;2022-12-18T07:39:06;50.17;;;24.52;;
52858;SDS011;38721;53.098;6.596;2022-12-18T07:41:31;48.95;;;24.23;;
52858;SDS011;38721;53.098;6.596;2022-12-18T07:43:57;45.75;;;21.83;;
52858;SDS011;38721;53.098;6.596;2022-12-18T07:46:23;48.65;;;24.50;;
52858;SDS011;38721;53.098;6.596;2022-12-18T07:48:48;50.50;;;23.98;;
52858;SDS011;38721;53.098;6.596;2022-12-18T07:51:14;47.03;;;23.35;;
52858;SDS011;38721;53.098;6.596;2022-12-18T07:53:40;49.88;;;24.13;;
52858;SDS011;38721;53.098;6.596;2022-12-18T07:56:07;48.58;;;23.38;;
52858;SDS011;38721;53.098;6.596;2022-12-18T07:58:34;47.53;;;23.20;;
52858;SDS011;38721;53.098;6.596;2022-12-18T08:01:08;48.88;;;22.98;;
52858;SDS011;38721;53.098;6.596;2022-12-18T08:03:35;45.08;;;23.90;;
52858;SDS011;38721;53.098;6.596;2022-12-18T08:06:02;45.97;;;23.83;;
52858;SDS011;38721;53.098;6.596;2022-12-18T08:08:29;46.03;;;22.88;;
52858;SDS011;38721;53.098;6.596;2022-12-18T08:10:55;51.50;;;23.60;;
52858;SDS011;38721;53.098;6.596;2022-12-18T08:13:21;48.38;;;23.38;;
52858;SDS011;38721;53.098;6.596;2022-12-18T08:15:55;45.25;;;22.65;;
52858;SDS011;38721;53.098;6.596;2022-12-18T08:18:25;42.88;;;21.05;;
52858;SDS011;38721;53.098;6.596;2022-12-18T08:20:53;42.38;;;21.92;;
52858;SDS011;38721;53.098;6.596;2022-12-18T08:23:20;38.88;;;21.50;;
52858;SDS011;38721;53.098;6.596;2022-12-18T08:25:45;44.65;;;23.45;;
52858;SDS011;38721;53.098;6.596;2022-12-18T08:28:11;41.92;;;20.98;;
52858;SDS011;38721;53.098;6.596;2022-12-18T08:30:37;40.20;;;19.85;;
52858;SDS011;38721;53.098;6.596;2022-12-18T08:33:02;43.85;;;20.40;;
52858;SDS011;38721;53.098;6.596;2022-12-18T08:35:28;39.70;;;19.90;;
52858;SDS011;38721;53.098;6.596;2022-12-18T08:37:54;38.78;;;20.65;;
52858;SDS011;38721;53.098;6.596;2022-12-18T08:40:19;42.58;;;20.85;;
52858;SDS011;38721;53.098;6.596;2022-12-18T08:42:45;42.25;;;21.50;;
52858;SDS011;38721;53.098;6.596;2022-12-18T08:45:29;40.50;;;20.95;;
52858;SDS011;38721;53.098;6.596;2022-12-18T08:47:58;38.65;;;21.25;;
52858;SDS011;38721;53.098;6.596;2022-12-18T08:50:24;41.95;;;20.15;;
52858;SDS011;38721;53.098;6.596;2022-12-18T08:52:49;40.35;;;19.88;;
52858;SDS011;38721;53.098;6.596;2022-12-18T08:55:15;38.78;;;19.08;;
52858;SDS011;38721;53.098;6.596;2022-12-18T08:57:41;34.95;;;19.52;;
52858;SDS011;38721;53.098;6.596;2022-12-18T09:00:07;35.95;;;18.17;;
52858;SDS011;38721;53.098;6.596;2022-12-18T09:02:33;31.30;;;18.48;;
52858;SDS011;38721;53.098;6.596;2022-12-18T09:04:58;37.10;;;18.98;;
52858;SDS011;38721;53.098;6.596;2022-12-18T09:07:24;38.45;;;18.95;;
52858;SDS011;38721;53.098;6.596;2022-12-18T09:09:50;34.05;;;19.67;;
52858;SDS011;38721;53.098;6.596;2022-12-18T09:12:16;32.55;;;18.30;;
52858;SDS011;38721;53.098;6.596;2022-12-18T09:14:44;32.33;;;18.48;;
52858;SDS011;38721;53.098;6.596;2022-12-18T09:17:10;35.25;;;18.92;;
52858;SDS011;38721;53.098;6.596;2022-12-18T09:19:35;34.17;;;18.55;;
52858;SDS011;38721;53.098;6.596;2022-12-18T09:22:01;36.13;;;19.13;;
52858;SDS011;38721;53.098;6.596;2022-12-18T09:24:27;29.20;;;17.20;;
52858;SDS011;38721;53.098;6.596;2022-12-18T09:26:53;33.70;;;18.55;;
52858;SDS011;38721;53.098;6.596;2022-12-18T09:29:21;32.88;;;18.83;;
52858;SDS011;38721;53.098;6.596;2022-12-18T09:31:47;32.35;;;17.40;;
52858;SDS011;38721;53.098;6.596;2022-12-18T09:34:14;33.53;;;18.67;;
52858;SDS011;38721;53.098;6.596;2022-12-18T09:36:40;31.67;;;17.45;;
52858;SDS011;38721;53.098;6.596;2022-12-18T09:39:05;28.33;;;17.20;;
52858;SDS011;38721;53.098;6.596;2022-12-18T09:49:19;30.42;;;17.10;;
52858;SDS011;38721;53.098;6.596;2022-12-18T09:51:50;34.35;;;18.60;;
52858;SDS011;38721;53.098;6.596;2022-12-18T09:54:32;31.92;;;18.23;;
52858;SDS011;38721;53.098;6.596;2022-12-18T09:57:18;30.75;;;18.20;;
52858;SDS011;38721;53.098;6.596;2022-12-18T09:59:58;28.02;;;16.35;;
52858;SDS011;38721;53.098;6.596;2022-12-18T10:02:31;32.65;;;19.23;;
52858;SDS011;38721;53.098;6.596;2022-12-18T10:05:09;33.35;;;18.45;;
52858;SDS011;38721;53.098;6.596;2022-12-18T10:07:55;29.48;;;17.77;;
52858;SDS011;38721;53.098;6.596;2022-12-18T10:13:13;29.05;;;17.38;;
52858;SDS011;38721;53.098;6.596;2022-12-18T10:15:53;29.40;;;17.25;;
52858;SDS011;38721;53.098;6.596;2022-12-18T10:20:52;27.38;;;17.38;;
52858;SDS011;38721;53.098;6.596;2022-12-18T10:23:33;27.80;;;15.70;;
52858;SDS011;38721;53.098;6.596;2022-12-18T10:26:13;27.70;;;15.80;;
52858;SDS011;38721;53.098;6.596;2022-12-18T10:28:39;25.00;;;14.95;;
52858;SDS011;38721;53.098;6.596;2022-12-18T10:31:06;25.10;;;14.52;;
52858;SDS011;38721;53.098;6.596;2022-12-18T10:33:42;23.67;;;14.18;;
52858;SDS011;38721;53.098;6.596;2022-12-18T10:36:08;25.52;;;14.43;;
52858;SDS011;38721;53.098;6.596;2022-12-18T10:38:34;22.30;;;14.32;;
52858;SDS011;38721;53.098;6.596;2022-12-18T10:44:10;23.23;;;13.57;;
52858;SDS011;38721;53.098;6.596;2022-12-18T10:46:50;19.38;;;12.35;;
52858;SDS011;38721;53.098;6.596;2022-12-18T10:49:30;19.98;;;13.35;;
52858;SDS011;38721;53.098;6.596;2022-12-18T10:52:07;22.55;;;12.70;;
52858;SDS011;38721;53.098;6.596;2022-12-18T10:54:49;18.75;;;12.07;;
52858;SDS011;38721;53.098;6.596;2022-12-18T10:57:38;22.35;;;12.07;;
52858;SDS011;38721;53.098;6.596;2022-12-18T11:02:52;17.48;;;11.20;;
52858;SDS011;38721;53.098;6.596;2022-12-18T11:05:27;20.95;;;12.35;;
52858;SDS011;38721;53.098;6.596;2022-12-18T11:07:55;17.90;;;11.00;;
52858;SDS011;38721;53.098;6.596;2022-12-18T11:10:22;18.83;;;10.85;;
52858;SDS011;38721;53.098;6.596;2022-12-18T11:15:45;16.42;;;10.57;;
52858;SDS011;38721;53.098;6.596;2022-12-18T11:18:18;13.40;;;10.07;;
52858;SDS011;38721;53.098;6.596;2022-12-18T11:20:56;15.85;;;10.27;;
52858;SDS011;38721;53.098;6.596;2022-12-18T11:23:24;14.25;;;9.93;;
52858;SDS011;38721;53.098;6.596;2022-12-18T11:25:52;19.00;;;10.60;;
52858;SDS011;38721;53.098;6.596;2022-12-18T11:31:16;14.43;;;9.50;;
52858;SDS011;38721;53.098;6.596;2022-12-18T11:33:46;15.13;;;9.00;;
52858;SDS011;38721;53.098;6.596;2022-12-18T11:36:37;13.60;;;8.43;;
52858;SDS011;38721;53.098;6.596;2022-12-18T11:42:01;14.00;;;9.30;;
52858;SDS011;38721;53.098;6.596;2022-12-18T11:44:50;15.45;;;8.18;;
52858;SDS011;38721;53.098;6.596;2022-12-18T11:47:42;14.82;;;8.85;;
52858;SDS011;38721;53.098;6.596;2022-12-18T11:50:19;14.15;;;9.10;;
52858;SDS011;38721;53.098;6.596;2022-12-18T11:52:53;13.90;;;8.15;;
52858;SDS011;38721;53.098;6.596;2022-12-18T11:58:30;12.65;;;8.35;;
52858;SDS011;38721;53.098;6.596;2022-12-18T12:03:59;12.95;;;8.32;;
52858;SDS011;38721;53.098;6.596;2022-12-18T12:09:18;12.82;;;8.38;;
52858;SDS011;38721;53.098;6.596;2022-12-18T12:12:02;13.48;;;7.95;;
52858;SDS011;38721;53.098;6.596;2022-12-18T12:17:36;12.02;;;7.82;;
52858;SDS011;38721;53.098;6.596;2022-12-18T12:20:35;11.85;;;7.72;;
52858;SDS011;38721;53.098;6.596;2022-12-18T12:23:15;10.77;;;7.88;;
52858;SDS011;38721;53.098;6.596;2022-12-18T12:25:46;9.85;;;6.85;;
52858;SDS011;38721;53.098;6.596;2022-12-18T12:28:24;11.02;;;7.45;;
52858;SDS011;38721;53.098;6.596;2022-12-18T12:39:18;10.85;;;7.32;;
52858;SDS011;38721;53.098;6.596;2022-12-18T12:41:48;12.82;;;7.57;;
52858;SDS011;38721;53.098;6.596;2022-12-18T12:44:34;14.33;;;7.17;;
52858;SDS011;38721;53.098;6.596;2022-12-18T12:47:07;9.32;;;6.97;;
52858;SDS011;38721;53.098;6.596;2022-12-18T12:49:50;11.52;;;6.03;;
52858;SDS011;38721;53.098;6.596;2022-12-18T12:53:04;9.73;;;6.70;;
52858;SDS011;38721;53.098;6.596;2022-12-18T12:55:17;10.82;;;6.63;;
52858;SDS011;38721;53.098;6.596;2022-12-18T12:57:51;12.02;;;6.50;;
52858;SDS011;38721;53.098;6.596;2022-12-18T13:00:23;10.23;;;6.55;;
52858;SDS011;38721;53.098;6.596;2022-12-18T13:05:41;11.23;;;6.68;;
52858;SDS011;38721;53.098;6.596;2022-12-18T13:08:26;11.65;;;7.32;;
52858;SDS011;38721;53.098;6.596;2022-12-18T13:10:56;9.32;;;6.57;;
52858;SDS011;38721;53.098;6.596;2022-12-18T13:13:49;9.77;;;6.18;;
52858;SDS011;38721;53.098;6.596;2022-12-18T13:16:18;10.07;;;6.47;;
52858;SDS011;38721;53.098;6.596;2022-12-18T13:18:51;12.40;;;6.63;;
52858;SDS011;38721;53.098;6.596;2022-12-18T13:21:25;8.93;;;6.28;;
52858;SDS011;38721;53.098;6.596;2022-12-18T13:23:56;11.00;;;6.90;;
52858;SDS011;38721;53.098;6.596;2022-12-18T13:26:39;9.90;;;6.57;;
52858;SDS011;38721;53.098;6.596;2022-12-18T13:29:04;10.00;;;6.30;;
52858;SDS011;38721;53.098;6.596;2022-12-18T13:34:22;9.55;;;6.20;;
52858;SDS011;38721;53.098;6.596;2022-12-18T13:36:49;10.85;;;6.75;;
52858;SDS011;38721;53.098;6.596;2022-12-18T13:41:48;11.00;;;5.75;;
52858;SDS011;38721;53.098;6.596;2022-12-18T13:44:32;10.68;;;6.32;;
52858;SDS011;38721;53.098;6.596;2022-12-18T13:47:02;10.18;;;6.53;;
52858;SDS011;38721;53.098;6.596;2022-12-18T13:52:00;10.13;;;6.22;;
52858;SDS011;38721;53.098;6.596;2022-12-18T13:54:32;10.85;;;6.10;;
52858;SDS011;38721;53.098;6.596;2022-12-18T13:57:01;10.00;;;6.72;;
52858;SDS011;38721;53.098;6.596;2022-12-18T13:59:35;10.40;;;6.60;;
52858;SDS011;38721;53.098;6.596;2022-12-18T14:02:21;9.95;;;6.43;;
52858;SDS011;38721;53.098;6.596;2022-12-18T14:04:50;10.20;;;7.00;;
52858;SDS011;38721;53.098;6.596;2022-12-18T14:07:17;11.75;;;7.75;;
52858;SDS011;38721;53.098;6.596;2022-12-18T14:09:57;10.20;;;6.63;;
52858;SDS011;38721;53.098;6.596;2022-12-18T14:12:26;9.73;;;6.45;;
52858;SDS011;38721;53.098;6.596;2022-12-18T14:17:58;10.35;;;6.45;;
52858;SDS011;38721;53.098;6.596;2022-12-18T14:20:33;9.90;;;6.40;;
52858;SDS011;38721;53.098;6.596;2022-12-18T14:23:09;9.48;;;6.43;;
52858;SDS011;38721;53.098;6.596;2022-12-18T14:25:58;12.27;;;7.72;;
52858;SDS011;38721;53.098;6.596;2022-12-18T14:28:24;11.63;;;6.90;;
52858;SDS011;38721;53.098;6.596;2022-12-18T14:30:51;8.82;;;6.43;;
52858;SDS011;38721;53.098;6.596;2022-12-18T14:33:19;9.65;;;6.50;;
52858;SDS011;38721;53.098;6.596;2022-12-18T14:38:27;12.07;;;7.65;;
52858;SDS011;38721;53.098;6.596;2022-12-18T14:41:01;10.75;;;6.53;;
52858;SDS011;38721;53.098;6.596;2022-12-18T14:43:37;11.82;;;6.97;;
52858;SDS011;38721;53.098;6.596;2022-12-18T14:46:05;13.68;;;7.13;;
52858;SDS011;38721;53.098;6.596;2022-12-18T14:48:51;11.43;;;7.80;;
52858;SDS011;38721;53.098;6.596;2022-12-18T14:51:22;13.32;;;7.22;;
52858;SDS011;38721;53.098;6.596;2022-12-18T14:53:53;10.52;;;7.10;;
52858;SDS011;38721;53.098;6.596;2022-12-18T14:56:28;13.73;;;7.80;;
52858;SDS011;38721;53.098;6.596;2022-12-18T14:58:57;12.63;;;8.27;;
52858;SDS011;38721;53.098;6.596;2022-12-18T15:01:26;10.15;;;7.32;;
52858;SDS011;38721;53.098;6.596;2022-12-18T15:03:58;10.93;;;7.32;;
52858;SDS011;38721;53.098;6.596;2022-12-18T15:06:29;13.75;;;7.53;;
52858;SDS011;38721;53.098;6.596;2022-12-18T15:09:00;13.05;;;7.75;;
52858;SDS011;38721;53.098;6.596;2022-12-18T15:11:32;13.07;;;7.65;;
52858;SDS011;38721;53.098;6.596;2022-12-18T15:14:23;13.35;;;7.50;;
52858;SDS011;38721;53.098;6.596;2022-12-18T15:16:54;11.48;;;7.45;;
52858;SDS011;38721;53.098;6.596;2022-12-18T15:19:21;12.50;;;7.65;;
52858;SDS011;38721;53.098;6.596;2022-12-18T15:21:52;11.48;;;7.50;;
52858;SDS011;38721;53.098;6.596;2022-12-18T15:24:23;14.25;;;8.07;;
52858;SDS011;38721;53.098;6.596;2022-12-18T15:26:52;15.48;;;8.38;;
52858;SDS011;38721;53.098;6.596;2022-12-18T15:29:19;12.75;;;8.32;;
52858;SDS011;38721;53.098;6.596;2022-12-18T15:31:58;13.25;;;9.23;;
52858;SDS011;38721;53.098;6.596;2022-12-18T15:34:24;13.45;;;8.70;;
52858;SDS011;38721;53.098;6.596;2022-12-18T15:36:54;14.95;;;8.48;;
52858;SDS011;38721;53.098;6.596;2022-12-18T15:39:22;15.50;;;8.98;;
52858;SDS011;38721;53.098;6.596;2022-12-18T15:41:48;13.35;;;8.55;;
52858;SDS011;38721;53.098;6.596;2022-12-18T15:44:32;12.27;;;8.43;;
52858;SDS011;38721;53.098;6.596;2022-12-18T15:47:01;14.05;;;9.50;;
52858;SDS011;38721;53.098;6.596;2022-12-18T15:49:27;15.07;;;9.43;;
52858;SDS011;38721;53.098;6.596;2022-12-18T15:51:53;16.23;;;8.63;;
52858;SDS011;38721;53.098;6.596;2022-12-18T15:54:22;15.70;;;9.68;;
52858;SDS011;38721;53.098;6.596;2022-12-18T15:57:09;15.60;;;9.75;;
52858;SDS011;38721;53.098;6.596;2022-12-18T15:59:52;14.93;;;9.85;;
52858;SDS011;38721;53.098;6.596;2022-12-18T16:02:24;13.45;;;8.85;;
52858;SDS011;38721;53.098;6.596;2022-12-18T16:04:53;15.25;;;8.77;;
52858;SDS011;38721;53.098;6.596;2022-12-18T16:07:19;14.38;;;8.98;;
52858;SDS011;38721;53.098;6.596;2022-12-18T16:09:45;13.68;;;9.43;;
52858;SDS011;38721;53.098;6.596;2022-12-18T16:12:18;13.43;;;8.70;;
52858;SDS011;38721;53.098;6.596;2022-12-18T16:14:46;14.15;;;9.68;;